sensor_id;sensor_type;location;lat;lon;timestamp;pressure;altitude;pressure_sealevel;temperature;humidity
33859;BME280;20156;47.486;12.074;2022-08-19T00:01:36;94779.16;;;17.97;100.00
33859;BME280;20156;47.486;12.074;2022-08-19T00:04:05;94783.88;;;18.06;100.00
33859;BME280;20156;47.486;12.074;2022-08-19T00:06:31;94777.31;;;18.03;100.00
33859;BME280;20156;47.486;12.074;2022-08-19T00:08:58;94773.38;;;18.21;100.00
33859;BME280;20156;47.486;12.074;2022-08-19T00:11:26;94772.03;;;17.98;100.00
33859;BME280;20156;47.486;12.074;2022-08-19T00:13:53;94752.81;;;18.13;100.00
33859;BME280;20156;47.486;12.074;2022-08-19T00:16:19;94749.66;;;18.06;100.00
33859;BME280;20156;47.486;12.074;2022-08-19T00:18:46;94747.56;;;17.97;100.00
33859;BME280;20156;47.486;12.074;2022-08-19T00:21:12;94737.75;;;17.72;100.00
33859;BME280;20156;47.486;12.074;2022-08-19T00:23:37;94723.81;;;17.72;100.00
33859;BME280;20156;47.486;12.074;2022-08-19T00:26:04;94716.47;;;17.84;100.00
33859;BME280;20156;47.486;12.074;2022-08-19T00:28:30;94711.22;;;17.99;100.00
33859;BME280;20156;47.486;12.074;2022-08-19T00:30:56;94705.16;;;18.04;100.00
33859;BME280;20156;47.486;12.074;2022-08-19T00:33:21;94720.97;;;18.19;100.00
33859;BME280;20156;47.486;12.074;2022-08-19T00:35:47;94718.34;;;18.04;100.00
33859;BME280;20156;47.486;12.074;2022-08-19T00:38:13;94707.00;;;18.14;100.00
33859;BME280;20156;47.486;12.074;2022-08-19T00:40:39;94704.91;;;18.21;100.00
33859;BME280;20156;47.486;12.074;2022-08-19T00:43:09;94703.09;;;18.31;100.00
33859;BME280;20156;47.486;12.074;2022-08-19T00:45:36;94722.03;;;17.98;100.00
33859;BME280;20156;47.486;12.074;2022-08-19T00:48:02;94718.56;;;17.92;100.00
33859;BME280;20156;47.486;12.074;2022-08-19T00:50:32;94705.16;;;17.94;100.00
33859;BME280;20156;47.486;12.074;2022-08-19T00:52:58;94714.31;;;17.76;100.00
33859;BME280;20156;47.486;12.074;2022-08-19T00:55:26;94730.66;;;17.78;100.00
33859;BME280;20156;47.486;12.074;2022-08-19T00:58:03;94743.06;;;17.88;100.00
33859;BME280;20156;47.486;12.074;2022-08-19T01:00:30;94736.22;;;17.87;100.00
33859;BME280;20156;47.486;12.074;2022-08-19T01:02:56;94740.69;;;17.96;100.00
33859;BME280;20156;47.486;12.074;2022-08-19T01:05:26;94740.41;;;17.93;100.00
33859;BME280;20156;47.486;12.074;2022-08-19T01:07:53;94753.31;;;17.94;100.00
33859;BME280;20156;47.486;12.074;2022-08-19T01:10:23;94753.31;;;17.84;100.00
33859;BME280;20156;47.486;12.074;2022-08-19T01:12:50;94745.41;;;17.89;100.00
33859;BME280;20156;47.486;12.074;2022-08-19T01:15:20;94740.69;;;17.81;100.00
33859;BME280;20156;47.486;12.074;2022-08-19T01:17:47;94748.84;;;17.85;100.00
33859;BME280;20156;47.486;12.074;2022-08-19T01:20:18;94749.13;;;18.03;100.00
33859;BME280;20156;47.486;12.074;2022-08-19T01:23:03;94762.06;;;18.15;100.00
33859;BME280;20156;47.486;12.074;2022-08-19T01:25:51;94777.59;;;18.17;100.00
33859;BME280;20156;47.486;12.074;2022-08-19T01:28:24;94794.72;;;18.19;100.00
33859;BME280;20156;47.486;12.074;2022-08-19T01:30:51;94798.66;;;18.17;100.00
33859;BME280;20156;47.486;12.074;2022-08-19T01:33:17;94803.09;;;18.01;100.00
33859;BME280;20156;47.486;12.074;2022-08-19T01:35:44;94793.09;;;18.03;100.00
33859;BME280;20156;47.486;12.074;2022-08-19T01:38:20;94792.78;;;17.89;100.00
33859;BME280;20156;47.486;12.074;2022-08-19T01:40:46;94787.81;;;17.93;100.00
33859;BME280;20156;47.486;12.074;2022-08-19T01:43:11;94784.72;;;18.21;100.00
33859;BME280;20156;47.486;12.074;2022-08-19T01:45:37;94802.38;;;18.41;100.00
33859;BME280;20156;47.486;12.074;2022-08-19T01:48:06;94805.28;;;18.55;100.00
33859;BME280;20156;47.486;12.074;2022-08-19T01:50:33;94806.59;;;18.52;100.00
33859;BME280;20156;47.486;12.074;2022-08-19T01:53:01;94811.66;;;18.69;100.00
33859;BME280;20156;47.486;12.074;2022-08-19T01:55:26;94810.81;;;18.43;100.00
33859;BME280;20156;47.486;12.074;2022-08-19T01:57:55;94802.63;;;18.45;100.00
33859;BME280;20156;47.486;12.074;2022-08-19T02:00:24;94795.53;;;18.50;100.00
33859;BME280;20156;47.486;12.074;2022-08-19T02:02:51;94791.31;;;18.59;100.00
33859;BME280;20156;47.486;12.074;2022-08-19T02:05:16;94789.22;;;18.56;100.00
33859;BME280;20156;47.486;12.074;2022-08-19T02:07:43;94794.00;;;18.85;100.00
33859;BME280;20156;47.486;12.074;2022-08-19T02:10:14;94795.56;;;18.76;100.00
33859;BME280;20156;47.486;12.074;2022-08-19T02:12:41;94800.03;;;18.90;100.00
33859;BME280;20156;47.486;12.074;2022-08-19T02:15:07;94793.97;;;18.95;100.00
33859;BME280;20156;47.486;12.074;2022-08-19T02:17:33;94795.81;;;18.89;100.00
33859;BME280;20156;47.486;12.074;2022-08-19T02:19:58;94780.28;;;18.68;100.00
33859;BME280;20156;47.486;12.074;2022-08-19T02:22:24;94782.13;;;18.67;100.00
33859;BME280;20156;47.486;12.074;2022-08-19T02:24:54;94783.41;;;18.59;100.00
33859;BME280;20156;47.486;12.074;2022-08-19T02:27:20;94775.25;;;18.56;100.00
33859;BME280;20156;47.486;12.074;2022-08-19T02:29:48;94768.91;;;18.62;100.00
33859;BME280;20156;47.486;12.074;2022-08-19T02:32:14;94777.09;;;18.50;100.00
33859;BME280;20156;47.486;12.074;2022-08-19T02:34:40;94768.41;;;18.40;100.00
33859;BME280;20156;47.486;12.074;2022-08-19T02:37:06;94762.63;;;18.68;100.00
33859;BME280;20156;47.486;12.074;2022-08-19T02:39:51;94759.97;;;18.53;100.00
33859;BME280;20156;47.486;12.074;2022-08-19T02:42:17;94756.25;;;18.28;100.00
33859;BME280;20156;47.486;12.074;2022-08-19T02:44:42;94749.97;;;18.40;100.00
33859;BME280;20156;47.486;12.074;2022-08-19T02:47:07;94756.56;;;18.32;100.00
33859;BME280;20156;47.486;12.074;2022-08-19T02:49:34;94762.03;;;18.10;100.00
33859;BME280;20156;47.486;12.074;2022-08-19T02:51:59;94757.84;;;18.19;100.00
33859;BME280;20156;47.486;12.074;2022-08-19T02:54:25;94741.81;;;18.31;100.00
33859;BME280;20156;47.486;12.074;2022-08-19T02:56:51;94748.41;;;18.69;100.00
33859;BME280;20156;47.486;12.074;2022-08-19T02:59:16;94771.56;;;18.62;100.00
33859;BME280;20156;47.486;12.074;2022-08-19T03:01:42;94770.25;;;18.59;100.00
33859;BME280;20156;47.486;12.074;2022-08-19T03:04:09;94768.41;;;18.50;100.00
33859;BME280;20156;47.486;12.074;2022-08-19T03:06:41;94769.72;;;18.42;100.00
33859;BME280;20156;47.486;12.074;2022-08-19T03:09:08;94776.31;;;18.75;100.00
33859;BME280;20156;47.486;12.074;2022-08-19T03:11:34;94780.00;;;18.89;100.00
33859;BME280;20156;47.486;12.074;2022-08-19T03:14:00;94794.78;;;18.75;100.00
33859;BME280;20156;47.486;12.074;2022-08-19T03:16:29;94785.03;;;18.66;100.00
33859;BME280;20156;47.486;12.074;2022-08-19T03:18:57;94780.00;;;18.59;100.00
33859;BME280;20156;47.486;12.074;2022-08-19T03:21:26;94781.84;;;18.58;100.00
33859;BME280;20156;47.486;12.074;2022-08-19T03:24:03;94790.25;;;18.45;100.00
33859;BME280;20156;47.486;12.074;2022-08-19T03:26:29;94783.41;;;18.39;100.00
33859;BME280;20156;47.486;12.074;2022-08-19T03:28:54;94786.06;;;18.34;100.00
33859;BME280;20156;47.486;12.074;2022-08-19T03:31:22;94784.72;;;18.42;100.00
33859;BME280;20156;47.486;12.074;2022-08-19T03:33:52;94779.19;;;18.38;100.00
33859;BME280;20156;47.486;12.074;2022-08-19T03:36:21;94779.19;;;18.43;100.00
33859;BME280;20156;47.486;12.074;2022-08-19T03:38:53;94783.94;;;18.36;100.00
33859;BME280;20156;47.486;12.074;2022-08-19T03:41:27;94779.97;;;18.23;100.00
33859;BME280;20156;47.486;12.074;2022-08-19T03:43:53;94762.84;;;18.21;100.00
33859;BME280;20156;47.486;12.074;2022-08-19T03:46:23;94757.03;;;18.09;100.00
33859;BME280;20156;47.486;12.074;2022-08-19T03:48:52;94736.75;;;17.99;100.00
33859;BME280;20156;47.486;12.074;2022-08-19T03:51:29;94735.72;;;18.00;100.00
33859;BME280;20156;47.486;12.074;2022-08-19T03:53:57;94721.75;;;18.04;100.00
33859;BME280;20156;47.486;12.074;2022-08-19T03:56:23;94727.28;;;18.03;100.00
33859;BME280;20156;47.486;12.074;2022-08-19T03:58:51;94719.16;;;18.15;100.00
33859;BME280;20156;47.486;12.074;2022-08-19T04:01:19;94731.22;;;18.00;100.00
33859;BME280;20156;47.486;12.074;2022-08-19T04:03:45;94725.44;;;17.98;100.00
33859;BME280;20156;47.486;12.074;2022-08-19T04:06:25;94733.88;;;18.16;100.00
33859;BME280;20156;47.486;12.074;2022-08-19T04:08:52;94730.19;;;18.27;100.00
33859;BME280;20156;47.486;12.074;2022-08-19T04:11:27;94753.09;;;18.11;100.00
33859;BME280;20156;47.486;12.074;2022-08-19T04:13:53;94742.28;;;17.97;100.00
33859;BME280;20156;47.486;12.074;2022-08-19T04:16:20;94742.31;;;18.33;100.00
33859;BME280;20156;47.486;12.074;2022-08-19T04:18:47;94752.06;;;18.17;100.00
33859;BME280;20156;47.486;12.074;2022-08-19T04:21:18;94758.38;;;18.57;100.00
33859;BME280;20156;47.486;12.074;2022-08-19T04:23:44;94764.19;;;18.74;100.00
33859;BME280;20156;47.486;12.074;2022-08-19T04:26:22;94779.72;;;19.01;100.00
33859;BME280;20156;47.486;12.074;2022-08-19T04:28:48;94787.09;;;18.94;100.00
33859;BME280;20156;47.486;12.074;2022-08-19T04:31:16;94780.50;;;18.97;100.00
33859;BME280;20156;47.486;12.074;2022-08-19T04:33:42;94787.38;;;18.92;100.00
33859;BME280;20156;47.486;12.074;2022-08-19T04:36:10;94787.63;;;19.06;100.00
33859;BME280;20156;47.486;12.074;2022-08-19T04:38:41;94788.66;;;19.10;100.00
33859;BME280;20156;47.486;12.074;2022-08-19T04:41:06;94782.66;;;18.89;100.00
33859;BME280;20156;47.486;12.074;2022-08-19T04:43:50;94777.38;;;19.00;100.00
33859;BME280;20156;47.486;12.074;2022-08-19T04:46:16;94791.84;;;18.97;100.00
33859;BME280;20156;47.486;12.074;2022-08-19T04:48:42;94785.50;;;19.08;100.00
33859;BME280;20156;47.486;12.074;2022-08-19T04:51:10;94778.44;;;18.88;100.00
33859;BME280;20156;47.486;12.074;2022-08-19T04:53:39;94782.63;;;19.15;100.00
33859;BME280;20156;47.486;12.074;2022-08-19T04:58:33;94778.94;;;19.06;100.00
33859;BME280;20156;47.486;12.074;2022-08-19T05:00:59;94769.69;;;19.18;100.00
33859;BME280;20156;47.486;12.074;2022-08-19T05:03:25;94764.13;;;19.20;100.00
33859;BME280;20156;47.486;12.074;2022-08-19T05:05:51;94760.69;;;19.19;100.00
33859;BME280;20156;47.486;12.074;2022-08-19T05:08:20;94756.72;;;19.32;100.00
33859;BME280;20156;47.486;12.074;2022-08-19T05:10:51;94751.69;;;19.36;100.00
33859;BME280;20156;47.486;12.074;2022-08-19T05:13:18;94751.41;;;19.37;100.00
33859;BME280;20156;47.486;12.074;2022-08-19T05:15:43;94746.94;;;19.33;100.00
33859;BME280;20156;47.486;12.074;2022-08-19T05:18:09;94748.00;;;19.27;100.00
33859;BME280;20156;47.486;12.074;2022-08-19T05:20:53;94737.38;;;19.52;100.00
33859;BME280;20156;47.486;12.074;2022-08-19T05:23:37;94744.63;;;19.11;100.00
33859;BME280;20156;47.486;12.074;2022-08-19T05:26:02;94737.72;;;19.25;100.00
33859;BME280;20156;47.486;12.074;2022-08-19T05:28:28;94729.75;;;19.40;100.00
33859;BME280;20156;47.486;12.074;2022-08-19T05:30:54;94733.44;;;19.55;100.00
33859;BME280;20156;47.486;12.074;2022-08-19T05:33:21;94728.94;;;19.45;100.00
33859;BME280;20156;47.486;12.074;2022-08-19T05:35:47;94734.88;;;19.16;100.00
33859;BME280;20156;47.486;12.074;2022-08-19T05:38:15;94741.97;;;19.21;100.00
33859;BME280;20156;47.486;12.074;2022-08-19T05:40:41;94742.69;;;19.42;100.00
33859;BME280;20156;47.486;12.074;2022-08-19T05:43:07;94739.47;;;19.60;100.00
33859;BME280;20156;47.486;12.074;2022-08-19T05:45:38;94730.78;;;19.44;100.00
33859;BME280;20156;47.486;12.074;2022-08-19T05:48:04;94741.94;;;19.26;100.00
33859;BME280;20156;47.486;12.074;2022-08-19T05:50:30;94743.28;;;19.23;100.00
33859;BME280;20156;47.486;12.074;2022-08-19T05:52:55;94727.84;;;18.71;100.00
33859;BME280;20156;47.486;12.074;2022-08-19T05:55:21;94710.19;;;18.51;100.00
33859;BME280;20156;47.486;12.074;2022-08-19T05:57:48;94700.97;;;18.49;100.00
33859;BME280;20156;47.486;12.074;2022-08-19T06:00:14;94681.97;;;17.96;100.00
33859;BME280;20156;47.486;12.074;2022-08-19T06:02:40;94659.91;;;18.02;100.00
33859;BME280;20156;47.486;12.074;2022-08-19T06:05:06;94651.22;;;18.17;100.00
33859;BME280;20156;47.486;12.074;2022-08-19T06:07:38;94624.53;;;18.64;100.00
33859;BME280;20156;47.486;12.074;2022-08-19T06:10:06;94545.19;;;18.60;100.00
33859;BME280;20156;47.486;12.074;2022-08-19T06:12:33;94546.78;;;18.61;100.00
33859;BME280;20156;47.486;12.074;2022-08-19T06:15:05;94549.94;;;18.74;100.00
33859;BME280;20156;47.486;12.074;2022-08-19T06:17:32;94549.88;;;18.89;100.00
33859;BME280;20156;47.486;12.074;2022-08-19T06:19:59;94539.03;;;18.90;100.00
33859;BME280;20156;47.486;12.074;2022-08-19T06:22:25;94536.44;;;18.85;100.00
33859;BME280;20156;47.486;12.074;2022-08-19T06:24:51;94534.16;;;18.69;100.00
33859;BME280;20156;47.486;12.074;2022-08-19T06:27:19;94535.41;;;18.81;100.00
33859;BME280;20156;47.486;12.074;2022-08-19T06:29:45;94543.75;;;18.93;100.00
33859;BME280;20156;47.486;12.074;2022-08-19T06:32:14;94552.47;;;18.99;100.00
33859;BME280;20156;47.486;12.074;2022-08-19T06:34:41;94560.88;;;19.01;100.00
33859;BME280;20156;47.486;12.074;2022-08-19T06:37:07;94570.16;;;18.88;100.00
33859;BME280;20156;47.486;12.074;2022-08-19T06:39:35;94547.00;;;18.80;100.00
33859;BME280;20156;47.486;12.074;2022-08-19T06:42:03;94547.16;;;19.04;100.00
33859;BME280;20156;47.486;12.074;2022-08-19T06:44:33;94553.00;;;18.91;100.00
33859;BME280;20156;47.486;12.074;2022-08-19T06:47:03;94564.41;;;18.81;100.00
33859;BME280;20156;47.486;12.074;2022-08-19T06:49:28;94567.81;;;18.87;100.00
33859;BME280;20156;47.486;12.074;2022-08-19T06:51:56;94566.13;;;19.06;100.00
33859;BME280;20156;47.486;12.074;2022-08-19T06:54:23;94580.84;;;19.12;100.00
33859;BME280;20156;47.486;12.074;2022-08-19T06:56:49;94603.28;;;19.15;100.00
33859;BME280;20156;47.486;12.074;2022-08-19T06:59:20;94610.78;;;19.37;100.00
33859;BME280;20156;47.486;12.074;2022-08-19T07:01:49;94621.63;;;19.30;100.00
33859;BME280;20156;47.486;12.074;2022-08-19T07:04:18;94635.81;;;18.85;100.00
33859;BME280;20156;47.486;12.074;2022-08-19T07:06:44;94631.06;;;18.87;100.00
33859;BME280;20156;47.486;12.074;2022-08-19T07:09:15;94650.03;;;18.89;100.00
33859;BME280;20156;47.486;12.074;2022-08-19T07:11:47;94655.47;;;19.13;100.00
33859;BME280;20156;47.486;12.074;2022-08-19T07:14:15;94659.69;;;19.14;100.00
33859;BME280;20156;47.486;12.074;2022-08-19T07:16:43;94664.25;;;18.98;100.00
33859;BME280;20156;47.486;12.074;2022-08-19T07:19:11;94665.03;;;18.99;100.00
33859;BME280;20156;47.486;12.074;2022-08-19T07:21:37;94664.13;;;19.23;100.00
33859;BME280;20156;47.486;12.074;2022-08-19T07:24:03;94656.47;;;19.27;100.00
33859;BME280;20156;47.486;12.074;2022-08-19T07:26:31;94657.25;;;19.33;100.00
33859;BME280;20156;47.486;12.074;2022-08-19T07:28:57;94652.22;;;19.36;100.00
33859;BME280;20156;47.486;12.074;2022-08-19T07:31:25;94643.69;;;19.55;100.00
33859;BME280;20156;47.486;12.074;2022-08-19T07:33:53;94638.09;;;19.66;100.00
33859;BME280;20156;47.486;12.074;2022-08-19T07:36:23;94638.09;;;19.61;100.00
33859;BME280;20156;47.486;12.074;2022-08-19T07:38:50;94633.97;;;19.89;100.00
33859;BME280;20156;47.486;12.074;2022-08-19T07:41:22;94640.19;;;20.03;100.00
33859;BME280;20156;47.486;12.074;2022-08-19T07:43:48;94649.41;;;20.06;100.00
33859;BME280;20156;47.486;12.074;2022-08-19T07:46:15;94659.75;;;20.31;100.00
33859;BME280;20156;47.486;12.074;2022-08-19T07:48:43;94666.44;;;20.58;100.00
33859;BME280;20156;47.486;12.074;2022-08-19T07:51:11;94670.84;;;20.91;100.00
33859;BME280;20156;47.486;12.074;2022-08-19T07:53:37;94687.06;;;20.56;100.00
33859;BME280;20156;47.486;12.074;2022-08-19T07:56:04;94684.50;;;20.11;100.00
33859;BME280;20156;47.486;12.074;2022-08-19T07:58:32;94661.09;;;20.34;100.00
33859;BME280;20156;47.486;12.074;2022-08-19T08:00:59;94663.06;;;20.18;100.00
33859;BME280;20156;47.486;12.074;2022-08-19T08:03:25;94663.81;;;20.24;100.00
33859;BME280;20156;47.486;12.074;2022-08-19T08:06:11;94660.09;;;19.91;100.00
33859;BME280;20156;47.486;12.074;2022-08-19T08:08:55;94662.06;;;20.09;100.00
33859;BME280;20156;47.486;12.074;2022-08-19T08:12:10;94660.44;;;20.13;100.00
33859;BME280;20156;47.486;12.074;2022-08-19T08:14:34;94676.09;;;20.38;100.00
33859;BME280;20156;47.486;12.074;2022-08-19T08:17:00;94681.88;;;20.98;100.00
33859;BME280;20156;47.486;12.074;2022-08-19T08:19:27;94700.91;;;21.48;100.00
33859;BME280;20156;47.486;12.074;2022-08-19T08:21:55;94719.78;;;21.84;100.00
33859;BME280;20156;47.486;12.074;2022-08-19T08:24:20;94726.69;;;22.23;100.00
33859;BME280;20156;47.486;12.074;2022-08-19T08:26:46;94743.16;;;21.58;100.00
33859;BME280;20156;47.486;12.074;2022-08-19T08:29:13;94740.81;;;21.76;100.00
33859;BME280;20156;47.486;12.074;2022-08-19T08:31:40;94745.78;;;21.58;100.00
33859;BME280;20156;47.486;12.074;2022-08-19T08:34:06;94745.72;;;22.06;100.00
33859;BME280;20156;47.486;12.074;2022-08-19T08:36:31;94754.28;;;21.98;100.00
33859;BME280;20156;47.486;12.074;2022-08-19T08:39:00;94757.75;;;22.36;100.00
33859;BME280;20156;47.486;12.074;2022-08-19T08:41:44;94760.84;;;22.76;100.00
33859;BME280;20156;47.486;12.074;2022-08-19T08:44:22;94766.72;;;22.92;100.00
33859;BME280;20156;47.486;12.074;2022-08-19T08:46:53;94775.59;;;23.15;100.00
33859;BME280;20156;47.486;12.074;2022-08-19T08:49:56;94788.78;;;23.33;100.00
33859;BME280;20156;47.486;12.074;2022-08-19T08:54:55;94824.97;;;23.29;100.00
33859;BME280;20156;47.486;12.074;2022-08-19T09:00:21;94813.97;;;23.36;100.00
33859;BME280;20156;47.486;12.074;2022-08-19T09:02:47;94812.59;;;23.25;100.00
33859;BME280;20156;47.486;12.074;2022-08-19T09:05:13;94817.00;;;23.29;100.00
33859;BME280;20156;47.486;12.074;2022-08-19T09:10:29;94824.50;;;22.95;100.00
33859;BME280;20156;47.486;12.074;2022-08-19T09:16:03;94828.03;;;23.50;100.00
33859;BME280;20156;47.486;12.074;2022-08-19T09:18:48;94838.06;;;23.86;100.00
33859;BME280;20156;47.486;12.074;2022-08-19T09:21:17;94856.03;;;23.61;100.00
33859;BME280;20156;47.486;12.074;2022-08-19T09:23:43;94848.94;;;23.84;100.00
33859;BME280;20156;47.486;12.074;2022-08-19T09:26:10;94835.53;;;24.67;100.00
33859;BME280;20156;47.486;12.074;2022-08-19T09:28:42;94844.56;;;24.57;100.00
33859;BME280;20156;47.486;12.074;2022-08-19T09:31:20;94845.56;;;24.47;100.00
33859;BME280;20156;47.486;12.074;2022-08-19T09:33:47;94851.91;;;24.10;100.00
33859;BME280;20156;47.486;12.074;2022-08-19T09:36:19;94855.38;;;23.51;100.00
33859;BME280;20156;47.486;12.074;2022-08-19T09:38:47;94836.75;;;23.83;100.00
33859;BME280;20156;47.486;12.074;2022-08-19T09:41:16;94835.06;;;24.01;100.00
33859;BME280;20156;47.486;12.074;2022-08-19T09:43:45;94817.09;;;24.34;100.00
33859;BME280;20156;47.486;12.074;2022-08-19T09:46:11;94828.34;;;25.03;100.00
33859;BME280;20156;47.486;12.074;2022-08-19T09:48:38;94822.56;;;25.10;100.00
33859;BME280;20156;47.486;12.074;2022-08-19T09:51:10;94820.19;;;24.64;100.00
33859;BME280;20156;47.486;12.074;2022-08-19T09:53:37;94821.72;;;24.78;100.00
33859;BME280;20156;47.486;12.074;2022-08-19T09:56:04;94819.34;;;24.77;100.00
33859;BME280;20156;47.486;12.074;2022-08-19T09:58:31;94820.94;;;24.42;100.00
33859;BME280;20156;47.486;12.074;2022-08-19T10:00:58;94831.84;;;24.54;100.00
33859;BME280;20156;47.486;12.074;2022-08-19T10:03:25;94838.81;;;23.59;100.00
33859;BME280;20156;47.486;12.074;2022-08-19T10:05:52;94818.97;;;24.34;100.00
33859;BME280;20156;47.486;12.074;2022-08-19T10:08:24;94826.63;;;25.07;100.00
33859;BME280;20156;47.486;12.074;2022-08-19T10:10:50;94826.81;;;25.42;100.00
33859;BME280;20156;47.486;12.074;2022-08-19T10:13:18;94831.22;;;24.93;100.00
33859;BME280;20156;47.486;12.074;2022-08-19T10:15:47;94836.59;;;24.43;100.00
33859;BME280;20156;47.486;12.074;2022-08-19T10:18:16;94841.56;;;24.72;100.00
33859;BME280;20156;47.486;12.074;2022-08-19T10:20:46;94858.84;;;25.19;100.00
33859;BME280;20156;47.486;12.074;2022-08-19T10:23:13;94859.69;;;24.93;100.00
33859;BME280;20156;47.486;12.074;2022-08-19T10:25:39;94861.00;;;24.59;100.00
33859;BME280;20156;47.486;12.074;2022-08-19T10:28:04;94850.63;;;24.94;100.00
33859;BME280;20156;47.486;12.074;2022-08-19T10:30:32;94846.66;;;24.69;100.00
33859;BME280;20156;47.486;12.074;2022-08-19T10:32:58;94845.56;;;24.47;100.00
33859;BME280;20156;47.486;12.074;2022-08-19T10:35:23;94845.59;;;24.70;100.00
33859;BME280;20156;47.486;12.074;2022-08-19T10:37:55;94846.41;;;25.15;100.00
33859;BME280;20156;47.486;12.074;2022-08-19T10:40:25;94847.25;;;25.24;100.00
33859;BME280;20156;47.486;12.074;2022-08-19T10:42:52;94841.47;;;25.93;100.00
33859;BME280;20156;47.486;12.074;2022-08-19T10:45:17;94831.13;;;26.00;100.00
33859;BME280;20156;47.486;12.074;2022-08-19T10:47:43;94842.34;;;25.71;100.00
33859;BME280;20156;47.486;12.074;2022-08-19T10:50:08;94842.81;;;25.73;100.00
33859;BME280;20156;47.486;12.074;2022-08-19T10:52:52;94820.81;;;26.07;100.00
33859;BME280;20156;47.486;12.074;2022-08-19T10:55:23;94827.16;;;25.71;100.00
33859;BME280;20156;47.486;12.074;2022-08-19T10:58:12;94820.34;;;25.34;100.00
33859;BME280;20156;47.486;12.074;2022-08-19T11:00:39;94818.75;;;25.25;100.00
33859;BME280;20156;47.486;12.074;2022-08-19T11:03:05;94816.31;;;24.92;100.00
33859;BME280;20156;47.486;12.074;2022-08-19T11:05:31;94811.47;;;25.47;100.00
33859;BME280;20156;47.486;12.074;2022-08-19T11:07:56;94809.84;;;26.08;100.00
33859;BME280;20156;47.486;12.074;2022-08-19T11:10:21;94813.34;;;26.52;100.00
33859;BME280;20156;47.486;12.074;2022-08-19T11:12:49;94799.75;;;25.97;100.00
33859;BME280;20156;47.486;12.074;2022-08-19T11:15:20;94794.19;;;26.85;100.00
33859;BME280;20156;47.486;12.074;2022-08-19T11:17:45;94792.38;;;25.94;100.00
33859;BME280;20156;47.486;12.074;2022-08-19T11:20:13;94789.94;;;25.35;100.00
33859;BME280;20156;47.486;12.074;2022-08-19T11:22:40;94772.78;;;25.90;100.00
33859;BME280;20156;47.486;12.074;2022-08-19T11:25:06;94773.91;;;26.32;100.00
33859;BME280;20156;47.486;12.074;2022-08-19T11:27:32;94778.81;;;26.64;100.00
33859;BME280;20156;47.486;12.074;2022-08-19T11:30:01;94791.25;;;25.38;100.00
33859;BME280;20156;47.486;12.074;2022-08-19T11:32:28;94777.34;;;25.58;100.00
33859;BME280;20156;47.486;12.074;2022-08-19T11:34:54;94777.47;;;26.01;100.00
33859;BME280;20156;47.486;12.074;2022-08-19T11:37:19;94769.34;;;27.02;100.00
33859;BME280;20156;47.486;12.074;2022-08-19T11:39:45;94776.41;;;27.15;100.00
33859;BME280;20156;47.486;12.074;2022-08-19T11:42:10;94777.38;;;26.24;100.00
33859;BME280;20156;47.486;12.074;2022-08-19T11:44:54;94761.66;;;27.00;100.00
33859;BME280;20156;47.486;12.074;2022-08-19T11:47:19;94753.13;;;27.53;100.00
33859;BME280;20156;47.486;12.074;2022-08-19T11:49:46;94753.78;;;27.12;100.00
33859;BME280;20156;47.486;12.074;2022-08-19T11:52:12;94748.75;;;27.11;100.00
33859;BME280;20156;47.486;12.074;2022-08-19T11:54:38;94743.47;;;26.33;100.00
33859;BME280;20156;47.486;12.074;2022-08-19T11:57:03;94745.97;;;26.12;100.00
33859;BME280;20156;47.486;12.074;2022-08-19T11:59:29;94742.88;;;26.36;100.00
33859;BME280;20156;47.486;12.074;2022-08-19T12:01:55;94741.25;;;26.78;100.00
33859;BME280;20156;47.486;12.074;2022-08-19T12:04:21;94747.53;;;26.13;100.00
33859;BME280;20156;47.486;12.074;2022-08-19T12:06:47;94741.28;;;26.35;100.00
33859;BME280;20156;47.486;12.074;2022-08-19T12:09:13;94755.06;;;26.11;100.00
33859;BME280;20156;47.486;12.074;2022-08-19T12:11:40;94745.06;;;26.43;100.00
33859;BME280;20156;47.486;12.074;2022-08-19T12:14:09;94765.44;;;26.30;100.00
33859;BME280;20156;47.486;12.074;2022-08-19T12:16:35;94766.88;;;25.22;100.00
33859;BME280;20156;47.486;12.074;2022-08-19T12:19:04;94763.69;;;25.91;100.00
33859;BME280;20156;47.486;12.074;2022-08-19T12:21:32;94761.53;;;26.36;100.00
33859;BME280;20156;47.486;12.074;2022-08-19T12:23:59;94767.31;;;26.12;100.00
33859;BME280;20156;47.486;12.074;2022-08-19T12:26:26;94758.47;;;27.15;100.00
33859;BME280;20156;47.486;12.074;2022-08-19T12:28:52;94762.63;;;27.42;100.00
33859;BME280;20156;47.486;12.074;2022-08-19T12:31:18;94766.97;;;27.64;100.00
33859;BME280;20156;47.486;12.074;2022-08-19T12:33:45;94781.09;;;27.26;100.00
33859;BME280;20156;47.486;12.074;2022-08-19T12:36:13;94774.75;;;26.41;100.00
33859;BME280;20156;47.486;12.074;2022-08-19T12:38:39;94761.19;;;26.12;100.00
33859;BME280;20156;47.486;12.074;2022-08-19T12:41:06;94753.19;;;25.94;100.00
33859;BME280;20156;47.486;12.074;2022-08-19T12:43:36;94749.69;;;25.76;100.00
33859;BME280;20156;47.486;12.074;2022-08-19T12:46:03;94758.00;;;25.84;100.00
33859;BME280;20156;47.486;12.074;2022-08-19T12:48:30;94761.16;;;26.03;100.00
33859;BME280;20156;47.486;12.074;2022-08-19T12:50:56;94762.16;;;26.24;100.00
33859;BME280;20156;47.486;12.074;2022-08-19T12:53:22;94763.84;;;25.94;100.00
33859;BME280;20156;47.486;12.074;2022-08-19T12:55:47;94765.47;;;25.64;100.00
33859;BME280;20156;47.486;12.074;2022-08-19T12:58:13;94768.28;;;25.59;100.00
33859;BME280;20156;47.486;12.074;2022-08-19T13:00:39;94763.88;;;25.55;100.00